Ingram, Virginia
Current Conditions -  °F | °C
As of 9:55 AM on Friday 19 Dec 2014 (Local Time) from KW78 Reporting Station
Clear Clear  
Wind Chill: 33°   Ceiling: Unl
Heat Index: 39°   Visibility: 10mi
Dew Point: 23°   Wind: 9mph
Humidity: 53%   Direction: 330°NNW
Pressure: 30.18"   Gusts: NA
Location:  36.7891°N, 79.1183°W
Report Text: KW78 191455Z AUTO 33008KT 10SM CLR 04/M05 A3018 RMK AO1 T00401049
Loading
Personal Weather Stations






























Interactive Weather Map New forecast layout! Learn more

10-Day Weather Forecast

Advertisements
Track Severe Weather on mobile